Aviation Digital Data Service (ADDS)

Output produced by METARs form (0503 UTC 21 September 2017)
found at http://www.aviationweather.gov/adds/metars/
 
DTTA 210430Z 24004KT 9999 FEW026 18/11 Q1020 NOSIG
TAF DTTA 202300Z 2100/2124 27006KT CAVOK 
     BECMG 2110/2112 07008KT 
     TEMPO 2112/2118 07018KT 
     BECMG 2120/2122 13010KT
       
TAF DTTR 210303Z 2104/2113 07022KT 6000 SCT030 
     BECMG 2110/2112 10012KT 9999
       
DTTG 210400Z 10005KT CAVOK 17/11 Q1019 NOSIG
TAF DTTG 210303Z 2104/2113 10006KT CAVOK 
     BECMG 2110/2112 07016KT
       
DTTF 210400Z 02008KT CAVOK 17/08 Q1020 NOSIG
TAF DTTF 210303Z 2104/2113 01010KT CAVOK 
     BECMG 2110/2112 10008KT
       
DTMB 210430Z 26007KT CAVOK 18/12 Q1020 NOSIG
TAF DTMB 201704Z 2018/2118 30012KT CAVOK 
     BECMG 0106/2108 01008KT 
     BECMG 2110/2112 10010KT 
     TEMPO 2112/2118 10020KT
       
DTTZ 210400Z 10006KT CAVOK 20/11 Q1019 NOSIG
TAF DTTZ 201704Z 2018/2118 16005KT CAVOK 
     BECMG 2022/2024 10015KT
       
DTTD 210400Z AUTO 09004KT 060V140 NCD 18/14 Q1020
DTTB 210400Z 03004KT 9999 FEWT020 15/12 Q1020
TAF DTTB 210303Z 2104/2113 03005KT 9999 SCT020 
     BECMG 2110/2112 03015KT
       
DTKA 210400Z 07004KT 8000 FEW020 13/12 Q1020 NOSIG
TAF DTKA 210303Z 2104/2113 20004KT 9999 SCT020 
     BECMG 2107/2109 07010KT 
     BECMG 2110/2112 01014KT
       
DTTX 210400Z 34005KT 9999 FEW030 18/09 Q1020 NOSIG
TAF DTTX 210303Z 2104/2113 01006KT CAVOK 
     BECMG 2110/2112 10010KT
       
DTTJ 210430Z 11004KT CAVOK 20/11 Q1019 NOSIG
TAF DTTJ 201704Z 2018/2118 02004KT CAVOK 
     BECMG 2022/2024 10010KT CAVOK 
     TEMPO 2100/2118 10020KT